sensor_id;sensor_type;location;lat;lon;timestamp;pressure;altitude;pressure_sealevel;temperature;humidity
18900;BME280;9582;52.018;6.306;2023-02-27T00:01:09;102795.44;;;-1.46;100.00
18900;BME280;9582;52.018;6.306;2023-02-27T00:03:36;102801.66;;;-1.39;100.00
18900;BME280;9582;52.018;6.306;2023-02-27T00:06:03;102792.16;;;-1.42;100.00
18900;BME280;9582;52.018;6.306;2023-02-27T00:08:30;102793.78;;;-1.44;100.00
18900;BME280;9582;52.018;6.306;2023-02-27T00:10:57;102795.31;;;-1.49;100.00
18900;BME280;9582;52.018;6.306;2023-02-27T00:13:23;102801.97;;;-1.54;100.00
18900;BME280;9582;52.018;6.306;2023-02-27T00:15:51;102793.47;;;-1.53;100.00
18900;BME280;9582;52.018;6.306;2023-02-27T00:18:20;102795.94;;;-1.56;100.00
18900;BME280;9582;52.018;6.306;2023-02-27T00:20:47;102794.97;;;-1.58;100.00
18900;BME280;9582;52.018;6.306;2023-02-27T00:23:14;102795.97;;;-1.54;100.00
18900;BME280;9582;52.018;6.306;2023-02-27T00:25:41;102799.41;;;-1.54;100.00
18900;BME280;9582;52.018;6.306;2023-02-27T00:28:07;102804.50;;;-1.55;100.00
18900;BME280;9582;52.018;6.306;2023-02-27T00:30:34;102796.16;;;-1.50;100.00
18900;BME280;9582;52.018;6.306;2023-02-27T00:33:02;102795.66;;;-1.40;100.00
18900;BME280;9582;52.018;6.306;2023-02-27T00:35:28;102800.09;;;-1.36;100.00
18900;BME280;9582;52.018;6.306;2023-02-27T00:37:55;102795.75;;;-1.37;100.00
18900;BME280;9582;52.018;6.306;2023-02-27T00:40:21;102792.97;;;-1.43;100.00
18900;BME280;9582;52.018;6.306;2023-02-27T00:42:49;102802.97;;;-1.50;100.00
18900;BME280;9582;52.018;6.306;2023-02-27T00:45:16;102794.13;;;-1.58;100.00
18900;BME280;9582;52.018;6.306;2023-02-27T00:47:44;102789.47;;;-1.68;100.00
18900;BME280;9582;52.018;6.306;2023-02-27T00:50:12;102796.00;;;-1.77;100.00
18900;BME280;9582;52.018;6.306;2023-02-27T00:52:39;102793.41;;;-1.78;100.00
18900;BME280;9582;52.018;6.306;2023-02-27T00:55:07;102790.00;;;-1.77;100.00
18900;BME280;9582;52.018;6.306;2023-02-27T00:57:34;102784.19;;;-1.73;100.00
18900;BME280;9582;52.018;6.306;2023-02-27T01:00:02;102785.50;;;-1.60;100.00
18900;BME280;9582;52.018;6.306;2023-02-27T01:02:30;102788.47;;;-1.50;100.00
18900;BME280;9582;52.018;6.306;2023-02-27T01:04:57;102780.94;;;-1.44;100.00
18900;BME280;9582;52.018;6.306;2023-02-27T01:07:25;102788.97;;;-1.35;100.00
18900;BME280;9582;52.018;6.306;2023-02-27T01:09:52;102790.09;;;-1.28;100.00
18900;BME280;9582;52.018;6.306;2023-02-27T01:12:18;102789.31;;;-1.26;100.00
18900;BME280;9582;52.018;6.306;2023-02-27T01:14:45;102788.31;;;-1.29;100.00
18900;BME280;9582;52.018;6.306;2023-02-27T01:17:12;102787.38;;;-1.33;100.00
18900;BME280;9582;52.018;6.306;2023-02-27T01:19:38;102787.19;;;-1.37;100.00
18900;BME280;9582;52.018;6.306;2023-02-27T01:22:05;102782.56;;;-1.47;100.00
18900;BME280;9582;52.018;6.306;2023-02-27T01:24:33;102791.59;;;-1.57;100.00
18900;BME280;9582;52.018;6.306;2023-02-27T01:26:59;102779.31;;;-1.65;100.00
18900;BME280;9582;52.018;6.306;2023-02-27T01:29:26;102788.56;;;-1.70;100.00
18900;BME280;9582;52.018;6.306;2023-02-27T01:31:53;102785.72;;;-1.78;100.00
18900;BME280;9582;52.018;6.306;2023-02-27T01:34:19;102786.13;;;-1.90;100.00
18900;BME280;9582;52.018;6.306;2023-02-27T01:36:46;102785.06;;;-1.95;100.00
18900;BME280;9582;52.018;6.306;2023-02-27T01:39:14;102788.28;;;-2.00;100.00
18900;BME280;9582;52.018;6.306;2023-02-27T01:41:42;102790.78;;;-2.02;100.00
18900;BME280;9582;52.018;6.306;2023-02-27T01:44:11;102789.00;;;-2.04;100.00
18900;BME280;9582;52.018;6.306;2023-02-27T01:46:38;102783.75;;;-2.07;100.00
18900;BME280;9582;52.018;6.306;2023-02-27T01:49:08;102790.50;;;-2.09;100.00
18900;BME280;9582;52.018;6.306;2023-02-27T01:51:40;102784.78;;;-2.02;100.00
18900;BME280;9582;52.018;6.306;2023-02-27T01:54:08;102783.88;;;-2.04;100.00
18900;BME280;9582;52.018;6.306;2023-02-27T01:56:35;102786.31;;;-2.07;100.00
18900;BME280;9582;52.018;6.306;2023-02-27T01:59:06;102778.63;;;-2.07;100.00
18900;BME280;9582;52.018;6.306;2023-02-27T02:01:35;102782.81;;;-2.09;100.00
18900;BME280;9582;52.018;6.306;2023-02-27T02:04:08;102778.50;;;-2.10;100.00
18900;BME280;9582;52.018;6.306;2023-02-27T02:06:43;102780.53;;;-2.02;100.00
18900;BME280;9582;52.018;6.306;2023-02-27T02:09:11;102780.50;;;-2.03;100.00
18900;BME280;9582;52.018;6.306;2023-02-27T02:11:39;102779.91;;;-1.96;100.00
18900;BME280;9582;52.018;6.306;2023-02-27T02:14:08;102783.44;;;-1.93;100.00
18900;BME280;9582;52.018;6.306;2023-02-27T02:16:46;102780.00;;;-1.93;100.00
18900;BME280;9582;52.018;6.306;2023-02-27T02:22:30;102785.66;;;-2.02;100.00
18900;BME280;9582;52.018;6.306;2023-02-27T02:28:06;102784.56;;;-2.08;100.00
18900;BME280;9582;52.018;6.306;2023-02-27T02:31:00;102781.88;;;-2.11;100.00
18900;BME280;9582;52.018;6.306;2023-02-27T02:42:43;102778.78;;;-2.25;100.00
18900;BME280;9582;52.018;6.306;2023-02-27T02:45:16;102788.03;;;-2.28;100.00
18900;BME280;9582;52.018;6.306;2023-02-27T02:47:58;102786.88;;;-2.37;100.00
18900;BME280;9582;52.018;6.306;2023-02-27T02:50:28;102784.44;;;-2.34;100.00
18900;BME280;9582;52.018;6.306;2023-02-27T02:53:03;102786.22;;;-2.31;100.00
18900;BME280;9582;52.018;6.306;2023-02-27T02:55:35;102788.66;;;-2.34;100.00
18900;BME280;9582;52.018;6.306;2023-02-27T02:58:09;102788.38;;;-2.42;100.00
18900;BME280;9582;52.018;6.306;2023-02-27T03:00:42;102793.13;;;-2.51;100.00
18900;BME280;9582;52.018;6.306;2023-02-27T03:03:17;102783.34;;;-2.61;100.00
18900;BME280;9582;52.018;6.306;2023-02-27T03:05:49;102788.34;;;-2.64;100.00
18900;BME280;9582;52.018;6.306;2023-02-27T03:08:20;102785.66;;;-2.67;100.00
18900;BME280;9582;52.018;6.306;2023-02-27T03:10:54;102784.78;;;-2.67;100.00
18900;BME280;9582;52.018;6.306;2023-02-27T03:13:26;102790.78;;;-2.67;100.00
18900;BME280;9582;52.018;6.306;2023-02-27T03:15:58;102787.53;;;-2.63;100.00
18900;BME280;9582;52.018;6.306;2023-02-27T03:18:29;102798.84;;;-2.58;100.00
18900;BME280;9582;52.018;6.306;2023-02-27T03:21:00;102796.28;;;-2.58;100.00
18900;BME280;9582;52.018;6.306;2023-02-27T03:23:31;102797.91;;;-2.60;100.00
18900;BME280;9582;52.018;6.306;2023-02-27T03:26:01;102791.19;;;-2.56;100.00
18900;BME280;9582;52.018;6.306;2023-02-27T03:28:31;102792.88;;;-2.57;100.00
18900;BME280;9582;52.018;6.306;2023-02-27T03:31:05;102793.47;;;-2.64;100.00
18900;BME280;9582;52.018;6.306;2023-02-27T03:33:35;102791.53;;;-2.69;100.00
18900;BME280;9582;52.018;6.306;2023-02-27T03:36:07;102790.66;;;-2.70;100.00
18900;BME280;9582;52.018;6.306;2023-02-27T03:38:39;102808.53;;;-2.71;100.00
18900;BME280;9582;52.018;6.306;2023-02-27T03:41:13;102804.16;;;-2.74;100.00
18900;BME280;9582;52.018;6.306;2023-02-27T03:43:52;102802.53;;;-2.72;100.00
18900;BME280;9582;52.018;6.306;2023-02-27T03:46:25;102806.91;;;-2.69;100.00
18900;BME280;9582;52.018;6.306;2023-02-27T03:48:53;102807.53;;;-2.75;100.00
18900;BME280;9582;52.018;6.306;2023-02-27T03:51:22;102811.00;;;-2.73;100.00
18900;BME280;9582;52.018;6.306;2023-02-27T03:53:56;102811.72;;;-2.77;100.00
18900;BME280;9582;52.018;6.306;2023-02-27T03:56:30;102810.75;;;-2.79;100.00
18900;BME280;9582;52.018;6.306;2023-02-27T03:58:58;102804.84;;;-2.78;100.00
18900;BME280;9582;52.018;6.306;2023-02-27T04:01:25;102806.00;;;-2.70;100.00
18900;BME280;9582;52.018;6.306;2023-02-27T04:03:59;102814.75;;;-2.65;100.00
18900;BME280;9582;52.018;6.306;2023-02-27T04:06:53;102820.13;;;-2.59;100.00
18900;BME280;9582;52.018;6.306;2023-02-27T04:10:08;102817.66;;;-2.57;100.00
18900;BME280;9582;52.018;6.306;2023-02-27T04:16:10;102823.53;;;-2.60;100.00
18900;BME280;9582;52.018;6.306;2023-02-27T04:18:53;102831.13;;;-2.61;100.00
18900;BME280;9582;52.018;6.306;2023-02-27T04:21:26;102829.44;;;-2.61;100.00
18900;BME280;9582;52.018;6.306;2023-02-27T04:24:03;102837.88;;;-2.63;100.00
18900;BME280;9582;52.018;6.306;2023-02-27T04:26:38;102840.56;;;-2.60;100.00
18900;BME280;9582;52.018;6.306;2023-02-27T04:29:13;102842.50;;;-2.55;100.00
18900;BME280;9582;52.018;6.306;2023-02-27T04:31:45;102840.00;;;-2.53;100.00
18900;BME280;9582;52.018;6.306;2023-02-27T04:34:19;102842.50;;;-2.55;100.00
18900;BME280;9582;52.018;6.306;2023-02-27T04:36:51;102832.88;;;-2.60;100.00
18900;BME280;9582;52.018;6.306;2023-02-27T04:39:22;102841.31;;;-2.63;100.00
18900;BME280;9582;52.018;6.306;2023-02-27T04:41:52;102840.44;;;-2.63;100.00
18900;BME280;9582;52.018;6.306;2023-02-27T04:44:21;102845.47;;;-2.65;100.00
18900;BME280;9582;52.018;6.306;2023-02-27T04:46:53;102842.78;;;-2.68;100.00
18900;BME280;9582;52.018;6.306;2023-02-27T04:49:24;102847.56;;;-2.77;100.00
18900;BME280;9582;52.018;6.306;2023-02-27T04:51:55;102853.16;;;-2.85;100.00
18900;BME280;9582;52.018;6.306;2023-02-27T04:54:26;102852.94;;;-2.90;100.00
18900;BME280;9582;52.018;6.306;2023-02-27T04:56:56;102850.53;;;-2.87;100.00
18900;BME280;9582;52.018;6.306;2023-02-27T04:59:29;102847.28;;;-2.83;100.00
18900;BME280;9582;52.018;6.306;2023-02-27T05:02:00;102853.47;;;-2.78;100.00
18900;BME280;9582;52.018;6.306;2023-02-27T05:04:30;102861.22;;;-2.76;100.00
18900;BME280;9582;52.018;6.306;2023-02-27T05:06:59;102855.38;;;-2.74;100.00
18900;BME280;9582;52.018;6.306;2023-02-27T05:09:30;102853.88;;;-2.69;100.00
18900;BME280;9582;52.018;6.306;2023-02-27T05:12:03;102859.00;;;-2.69;100.00
18900;BME280;9582;52.018;6.306;2023-02-27T05:14:33;102869.22;;;-2.69;100.00
18900;BME280;9582;52.018;6.306;2023-02-27T05:17:06;102869.09;;;-2.72;100.00
18900;BME280;9582;52.018;6.306;2023-02-27T05:19:36;102876.66;;;-2.75;100.00
18900;BME280;9582;52.018;6.306;2023-02-27T05:22:10;102881.69;;;-2.76;100.00
18900;BME280;9582;52.018;6.306;2023-02-27T05:24:47;102883.31;;;-2.78;100.00
18900;BME280;9582;52.018;6.306;2023-02-27T05:27:21;102877.06;;;-2.85;100.00
18900;BME280;9582;52.018;6.306;2023-02-27T05:29:51;102890.38;;;-2.94;100.00
18900;BME280;9582;52.018;6.306;2023-02-27T05:32:27;102893.44;;;-3.01;100.00
18900;BME280;9582;52.018;6.306;2023-02-27T05:35:00;102896.88;;;-3.00;100.00
18900;BME280;9582;52.018;6.306;2023-02-27T05:37:32;102899.63;;;-2.96;100.00
18900;BME280;9582;52.018;6.306;2023-02-27T05:40:03;102899.78;;;-2.93;100.00
18900;BME280;9582;52.018;6.306;2023-02-27T05:42:36;102887.84;;;-2.92;100.00
18900;BME280;9582;52.018;6.306;2023-02-27T05:45:07;102889.41;;;-2.96;100.00
18900;BME280;9582;52.018;6.306;2023-02-27T05:47:38;102894.78;;;-2.89;100.00
18900;BME280;9582;52.018;6.306;2023-02-27T05:50:08;102896.59;;;-2.87;100.00
18900;BME280;9582;52.018;6.306;2023-02-27T05:52:39;102889.00;;;-2.85;100.00
18900;BME280;9582;52.018;6.306;2023-02-27T05:55:10;102894.19;;;-2.84;100.00
18900;BME280;9582;52.018;6.306;2023-02-27T05:57:43;102887.28;;;-2.85;100.00
18900;BME280;9582;52.018;6.306;2023-02-27T06:00:15;102885.63;;;-2.84;100.00
18900;BME280;9582;52.018;6.306;2023-02-27T06:02:46;102888.88;;;-2.88;100.00
18900;BME280;9582;52.018;6.306;2023-02-27T06:05:14;102896.59;;;-2.87;100.00
18900;BME280;9582;52.018;6.306;2023-02-27T06:07:42;102891.56;;;-2.85;100.00
18900;BME280;9582;52.018;6.306;2023-02-27T06:10:11;102895.81;;;-2.86;100.00
18900;BME280;9582;52.018;6.306;2023-02-27T06:12:39;102898.50;;;-2.83;100.00
18900;BME280;9582;52.018;6.306;2023-02-27T06:15:06;102903.06;;;-2.76;100.00
18900;BME280;9582;52.018;6.306;2023-02-27T06:17:33;102906.44;;;-2.77;100.00
18900;BME280;9582;52.018;6.306;2023-02-27T06:20:01;102913.91;;;-2.81;100.00
18900;BME280;9582;52.018;6.306;2023-02-27T06:22:28;102916.19;;;-2.87;100.00
18900;BME280;9582;52.018;6.306;2023-02-27T06:24:54;102917.78;;;-2.91;100.00
18900;BME280;9582;52.018;6.306;2023-02-27T06:27:20;102926.44;;;-2.87;100.00
18900;BME280;9582;52.018;6.306;2023-02-27T06:29:47;102925.63;;;-2.86;100.00
18900;BME280;9582;52.018;6.306;2023-02-27T06:32:13;102926.72;;;-2.81;100.00
18900;BME280;9582;52.018;6.306;2023-02-27T06:34:40;102930.28;;;-2.78;100.00
18900;BME280;9582;52.018;6.306;2023-02-27T06:37:08;102934.66;;;-2.75;100.00
18900;BME280;9582;52.018;6.306;2023-02-27T06:39:34;102935.44;;;-2.76;100.00
18900;BME280;9582;52.018;6.306;2023-02-27T06:42:01;102943.88;;;-2.79;100.00
18900;BME280;9582;52.018;6.306;2023-02-27T06:44:28;102938.63;;;-2.82;100.00
18900;BME280;9582;52.018;6.306;2023-02-27T06:46:54;102939.38;;;-2.84;100.00
18900;BME280;9582;52.018;6.306;2023-02-27T06:49:21;102940.06;;;-2.88;100.00
18900;BME280;9582;52.018;6.306;2023-02-27T06:51:48;102935.75;;;-2.89;100.00
18900;BME280;9582;52.018;6.306;2023-02-27T06:54:16;102933.31;;;-2.86;100.00
18900;BME280;9582;52.018;6.306;2023-02-27T06:56:42;102936.16;;;-2.80;100.00
18900;BME280;9582;52.018;6.306;2023-02-27T06:59:09;102933.84;;;-2.74;100.00
18900;BME280;9582;52.018;6.306;2023-02-27T07:01:35;102937.53;;;-2.68;100.00
18900;BME280;9582;52.018;6.306;2023-02-27T07:04:02;102936.91;;;-2.62;100.00
18900;BME280;9582;52.018;6.306;2023-02-27T07:06:29;102944.06;;;-2.55;100.00
18900;BME280;9582;52.018;6.306;2023-02-27T07:08:55;102934.88;;;-2.50;100.00
18900;BME280;9582;52.018;6.306;2023-02-27T07:11:23;102941.94;;;-2.45;100.00
18900;BME280;9582;52.018;6.306;2023-02-27T07:13:50;102937.09;;;-2.39;100.00
18900;BME280;9582;52.018;6.306;2023-02-27T07:16:16;102944.22;;;-2.31;100.00
18900;BME280;9582;52.018;6.306;2023-02-27T07:18:43;102951.31;;;-2.26;100.00
18900;BME280;9582;52.018;6.306;2023-02-27T07:21:09;102944.53;;;-2.24;100.00
18900;BME280;9582;52.018;6.306;2023-02-27T07:23:36;102949.66;;;-2.24;100.00
18900;BME280;9582;52.018;6.306;2023-02-27T07:26:03;102954.78;;;-2.24;100.00
18900;BME280;9582;52.018;6.306;2023-02-27T07:28:31;102958.38;;;-2.20;100.00
18900;BME280;9582;52.018;6.306;2023-02-27T07:30:57;102954.22;;;-2.17;100.00
18900;BME280;9582;52.018;6.306;2023-02-27T07:33:24;102962.16;;;-2.11;100.00
18900;BME280;9582;52.018;6.306;2023-02-27T07:35:50;102953.03;;;-2.04;100.00
18900;BME280;9582;52.018;6.306;2023-02-27T07:38:17;102965.28;;;-1.97;100.00
18900;BME280;9582;52.018;6.306;2023-02-27T07:40:46;102963.22;;;-1.85;100.00
18900;BME280;9582;52.018;6.306;2023-02-27T07:43:13;102962.06;;;-1.71;100.00
18900;BME280;9582;52.018;6.306;2023-02-27T07:45:43;102968.44;;;-1.61;100.00
18900;BME280;9582;52.018;6.306;2023-02-27T07:48:10;102967.94;;;-1.53;100.00
18900;BME280;9582;52.018;6.306;2023-02-27T07:50:37;102967.53;;;-1.41;100.00
18900;BME280;9582;52.018;6.306;2023-02-27T07:53:03;102968.72;;;-1.32;100.00
18900;BME280;9582;52.018;6.306;2023-02-27T07:55:32;102975.91;;;-1.23;100.00
18900;BME280;9582;52.018;6.306;2023-02-27T07:57:58;102967.69;;;-1.14;100.00
18900;BME280;9582;52.018;6.306;2023-02-27T08:00:25;102971.47;;;-1.05;100.00
18900;BME280;9582;52.018;6.306;2023-02-27T08:02:53;102975.13;;;-0.98;100.00
18900;BME280;9582;52.018;6.306;2023-02-27T08:05:19;102979.78;;;-0.88;100.00
18900;BME280;9582;52.018;6.306;2023-02-27T08:07:46;102980.97;;;-0.79;100.00
18900;BME280;9582;52.018;6.306;2023-02-27T08:10:12;102988.13;;;-0.70;100.00
18900;BME280;9582;52.018;6.306;2023-02-27T08:12:40;102988.47;;;-0.61;100.00
18900;BME280;9582;52.018;6.306;2023-02-27T08:15:08;102987.16;;;-0.50;100.00
18900;BME280;9582;52.018;6.306;2023-02-27T08:17:34;102987.59;;;-0.38;100.00
18900;BME280;9582;52.018;6.306;2023-02-27T08:20:03;102983.66;;;-0.28;100.00
18900;BME280;9582;52.018;6.306;2023-02-27T08:22:31;102989.84;;;-0.22;100.00
18900;BME280;9582;52.018;6.306;2023-02-27T08:24:58;102984.09;;;-0.15;100.00
18900;BME280;9582;52.018;6.306;2023-02-27T08:27:25;102979.41;;;-0.01;100.00
18900;BME280;9582;52.018;6.306;2023-02-27T08:29:51;102986.59;;;0.09;100.00
18900;BME280;9582;52.018;6.306;2023-02-27T08:32:18;102985.44;;;0.26;100.00
18900;BME280;9582;52.018;6.306;2023-02-27T08:34:44;102978.91;;;0.37;100.00
18900;BME280;9582;52.018;6.306;2023-02-27T08:37:12;102983.38;;;0.43;100.00
18900;BME280;9582;52.018;6.306;2023-02-27T08:39:39;102985.38;;;0.51;100.00
18900;BME280;9582;52.018;6.306;2023-02-27T08:42:05;102984.84;;;0.62;100.00
18900;BME280;9582;52.018;6.306;2023-02-27T08:44:32;102992.88;;;0.72;100.00
18900;BME280;9582;52.018;6.306;2023-02-27T08:46:58;102987.31;;;0.87;100.00
18900;BME280;9582;52.018;6.306;2023-02-27T08:49:25;102987.50;;;0.93;100.00
18900;BME280;9582;52.018;6.306;2023-02-27T08:51:52;102984.22;;;0.98;100.00
18900;BME280;9582;52.018;6.306;2023-02-27T08:54:20;102993.06;;;1.08;100.00
18900;BME280;9582;52.018;6.306;2023-02-27T08:56:47;102988.97;;;1.14;100.00
18900;BME280;9582;52.018;6.306;2023-02-27T08:59:13;102994.50;;;1.27;100.00
18900;BME280;9582;52.018;6.306;2023-02-27T09:01:40;102991.16;;;1.31;100.00
18900;BME280;9582;52.018;6.306;2023-02-27T09:04:07;102989.47;;;1.33;100.00
18900;BME280;9582;52.018;6.306;2023-02-27T09:06:35;102986.25;;;1.40;100.00
18900;BME280;9582;52.018;6.306;2023-02-27T09:09:03;102991.59;;;1.46;100.00
18900;BME280;9582;52.018;6.306;2023-02-27T09:11:32;102991.13;;;1.60;100.00
18900;BME280;9582;52.018;6.306;2023-02-27T09:13:59;102997.28;;;1.65;100.00
18900;BME280;9582;52.018;6.306;2023-02-27T09:16:26;102987.22;;;1.76;100.00
18900;BME280;9582;52.018;6.306;2023-02-27T09:18:53;102990.88;;;1.84;100.00
18900;BME280;9582;52.018;6.306;2023-02-27T09:21:19;102997.94;;;1.91;100.00
18900;BME280;9582;52.018;6.306;2023-02-27T09:23:46;102991.19;;;1.96;100.00
18900;BME280;9582;52.018;6.306;2023-02-27T09:26:13;103000.94;;;2.08;100.00
18900;BME280;9582;52.018;6.306;2023-02-27T09:28:42;103002.03;;;2.17;100.00
18900;BME280;9582;52.018;6.306;2023-02-27T09:31:09;103002.22;;;2.25;100.00
18900;BME280;9582;52.018;6.306;2023-02-27T09:33:37;103005.78;;;2.28;100.00
18900;BME280;9582;52.018;6.306;2023-02-27T09:36:04;103005.22;;;2.42;100.00
18900;BME280;9582;52.018;6.306;2023-02-27T09:38:31;103007.09;;;2.49;100.00
18900;BME280;9582;52.018;6.306;2023-02-27T09:40:59;103003.75;;;2.54;100.00
18900;BME280;9582;52.018;6.306;2023-02-27T09:43:31;103000.59;;;2.66;100.00
18900;BME280;9582;52.018;6.306;2023-02-27T09:46:01;103008.63;;;2.78;100.00
18900;BME280;9582;52.018;6.306;2023-02-27T09:48:31;103000.13;;;2.82;100.00
18900;BME280;9582;52.018;6.306;2023-02-27T09:51:00;103000.13;;;2.82;100.00
18900;BME280;9582;52.018;6.306;2023-02-27T09:53:31;103005.47;;;2.91;100.00
18900;BME280;9582;52.018;6.306;2023-02-27T09:56:05;103009.00;;;2.95;100.00
18900;BME280;9582;52.018;6.306;2023-02-27T09:58:46;103009.09;;;2.99;100.00
18900;BME280;9582;52.018;6.306;2023-02-27T10:01:20;102998.88;;;3.05;100.00
18900;BME280;9582;52.018;6.306;2023-02-27T10:06:57;103001.84;;;3.23;100.00
18900;BME280;9582;52.018;6.306;2023-02-27T10:09:39;103006.19;;;3.24;100.00
18900;BME280;9582;52.018;6.306;2023-02-27T10:12:21;102991.63;;;3.31;100.00
18900;BME280;9582;52.018;6.306;2023-02-27T10:14:54;102992.94;;;3.53;100.00
18900;BME280;9582;52.018;6.306;2023-02-27T10:17:27;102988.19;;;3.75;100.00
18900;BME280;9582;52.018;6.306;2023-02-27T10:19:55;102984.66;;;3.72;100.00
18900;BME280;9582;52.018;6.306;2023-02-27T10:22:28;102983.78;;;3.70;100.00
18900;BME280;9582;52.018;6.306;2023-02-27T10:24:59;102976.03;;;3.73;100.00
18900;BME280;9582;52.018;6.306;2023-02-27T10:27:29;102980.72;;;3.92;100.00
18900;BME280;9582;52.018;6.306;2023-02-27T10:30:00;102976.69;;;4.09;100.00
18900;BME280;9582;52.018;6.306;2023-02-27T10:32:38;102974.00;;;4.03;100.00
18900;BME280;9582;52.018;6.306;2023-02-27T10:35:08;102965.34;;;4.02;100.00
18900;BME280;9582;52.018;6.306;2023-02-27T10:37:46;102981.63;;;3.95;100.00
18900;BME280;9582;52.018;6.306;2023-02-27T10:40:15;102981.63;;;3.95;100.00
18900;BME280;9582;52.018;6.306;2023-02-27T10:42:42;102968.00;;;4.07;100.00
18900;BME280;9582;52.018;6.306;2023-02-27T10:45:12;102968.09;;;4.12;100.00
18900;BME280;9582;52.018;6.306;2023-02-27T10:47:41;102963.75;;;4.09;100.00
18900;BME280;9582;52.018;6.306;2023-02-27T10:50:19;102963.78;;;4.12;100.00
18900;BME280;9582;52.018;6.306;2023-02-27T10:52:49;102950.94;;;4.18;100.00
18900;BME280;9582;52.018;6.306;2023-02-27T10:55:18;102950.97;;;4.21;100.00
18900;BME280;9582;52.018;6.306;2023-02-27T10:57:47;102946.53;;;4.13;100.00
18900;BME280;9582;52.018;6.306;2023-02-27T11:00:31;102949.09;;;4.13;100.00
18900;BME280;9582;52.018;6.306;2023-02-27T11:03:01;102952.69;;;4.19;100.00
18900;BME280;9582;52.018;6.306;2023-02-27T11:05:28;102945.00;;;4.27;100.00
18900;BME280;9582;52.018;6.306;2023-02-27T11:08:10;102946.00;;;4.35;100.00
18900;BME280;9582;52.018;6.306;2023-02-27T11:10:52;102940.03;;;4.39;100.00
18900;BME280;9582;52.018;6.306;2023-02-27T11:13:21;102925.44;;;4.45;100.00
18900;BME280;9582;52.018;6.306;2023-02-27T11:16:02;102934.28;;;4.61;100.00
18900;BME280;9582;52.018;6.306;2023-02-27T11:18:30;102927.16;;;4.46;100.00
18900;BME280;9582;52.018;6.306;2023-02-27T11:21:10;102932.41;;;4.49;100.00
18900;BME280;9582;52.018;6.306;2023-02-27T11:23:37;102929.00;;;4.53;100.00
18900;BME280;9582;52.018;6.306;2023-02-27T11:26:09;102929.81;;;4.49;100.00
18900;BME280;9582;52.018;6.306;2023-02-27T11:28:36;102924.72;;;4.54;100.00
18900;BME280;9582;52.018;6.306;2023-02-27T11:31:05;102910.19;;;4.66;100.00
18900;BME280;9582;52.018;6.306;2023-02-27T11:33:37;102915.44;;;4.73;100.00
18900;BME280;9582;52.018;6.306;2023-02-27T11:36:05;102918.28;;;4.91;100.00
18900;BME280;9582;52.018;6.306;2023-02-27T11:38:32;102909.63;;;4.90;100.00
18900;BME280;9582;52.018;6.306;2023-02-27T11:41:00;102909.84;;;5.11;100.00
18900;BME280;9582;52.018;6.306;2023-02-27T11:43:30;102909.81;;;5.08;100.00
18900;BME280;9582;52.018;6.306;2023-02-27T11:46:00;102910.78;;;5.18;100.00
18900;BME280;9582;52.018;6.306;2023-02-27T11:48:31;102905.69;;;5.24;100.00
18900;BME280;9582;52.018;6.306;2023-02-27T11:51:29;102902.09;;;5.13;100.00
18900;BME280;9582;52.018;6.306;2023-02-27T11:54:27;102905.75;;;5.30;100.00
18900;BME280;9582;52.018;6.306;2023-02-27T11:57:00;102913.56;;;5.35;100.00
18900;BME280;9582;52.018;6.306;2023-02-27T11:59:38;102909.25;;;5.35;100.00
18900;BME280;9582;52.018;6.306;2023-02-27T12:02:13;102906.72;;;5.41;100.00
18900;BME280;9582;52.018;6.306;2023-02-27T12:04:46;102913.75;;;5.53;100.00
18900;BME280;9582;52.018;6.306;2023-02-27T12:07:20;102907.00;;;5.74;100.00
18900;BME280;9582;52.018;6.306;2023-02-27T12:09:54;102905.25;;;5.73;100.00
18900;BME280;9582;52.018;6.306;2023-02-27T12:12:28;102911.03;;;5.42;100.00
18900;BME280;9582;52.018;6.306;2023-02-27T12:15:03;102905.84;;;5.41;100.00
18900;BME280;9582;52.018;6.306;2023-02-27T12:17:35;102897.16;;;5.37;100.00
18900;BME280;9582;52.018;6.306;2023-02-27T12:20:27;102898.69;;;5.20;100.00
18900;BME280;9582;52.018;6.306;2023-02-27T12:22:56;102903.03;;;5.22;100.00
18900;BME280;9582;52.018;6.306;2023-02-27T12:25:34;102895.34;;;5.27;100.00
18900;BME280;9582;52.018;6.306;2023-02-27T12:28:07;102896.03;;;5.12;100.00
18900;BME280;9582;52.018;6.306;2023-02-27T12:30:41;102902.78;;;5.00;100.00
18900;BME280;9582;52.018;6.306;2023-02-27T12:33:17;102913.16;;;4.98;100.00
18900;BME280;9582;52.018;6.306;2023-02-27T12:35:52;102895.75;;;4.85;100.00
18900;BME280;9582;52.018;6.306;2023-02-27T12:38:22;102899.06;;;4.75;100.00
18900;BME280;9582;52.018;6.306;2023-02-27T12:40:59;102901.59;;;4.71;100.00
18900;BME280;9582;52.018;6.306;2023-02-27T12:43:35;102899.09;;;4.78;100.00
18900;BME280;9582;52.018;6.306;2023-02-27T12:46:22;102901.34;;;5.21;100.00
18900;BME280;9582;52.018;6.306;2023-02-27T12:48:59;102891.94;;;5.34;100.00
18900;BME280;9582;52.018;6.306;2023-02-27T12:51:42;102892.13;;;5.52;100.00
18900;BME280;9582;52.018;6.306;2023-02-27T12:54:29;102883.44;;;5.49;100.00
18900;BME280;9582;52.018;6.306;2023-02-27T12:57:05;102888.53;;;5.38;100.00
18900;BME280;9582;52.018;6.306;2023-02-27T13:00:01;102885.78;;;5.21;100.00
18900;BME280;9582;52.018;6.306;2023-02-27T13:02:46;102872.63;;;5.05;100.00
18900;BME280;9582;52.018;6.306;2023-02-27T13:05:29;102884.84;;;5.18;100.00
18900;BME280;9582;52.018;6.306;2023-02-27T13:10:52;102876.88;;;5.89;100.00
18900;BME280;9582;52.018;6.306;2023-02-27T13:13:26;102878.44;;;5.71;100.00
18900;BME280;9582;52.018;6.306;2023-02-27T13:15:56;102878.22;;;5.46;100.00
18900;BME280;9582;52.018;6.306;2023-02-27T13:18:41;102865.22;;;5.43;100.00
18900;BME280;9582;52.018;6.306;2023-02-27T13:21:11;102884.78;;;5.10;100.00
18900;BME280;9582;52.018;6.306;2023-02-27T13:23:59;102876.84;;;4.94;100.00
18900;BME280;9582;52.018;6.306;2023-02-27T13:26:35;102869.91;;;4.94;100.00
18900;BME280;9582;52.018;6.306;2023-02-27T13:29:03;102866.72;;;5.19;100.00
18900;BME280;9582;52.018;6.306;2023-02-27T13:31:35;102872.91;;;5.32;100.00
18900;BME280;9582;52.018;6.306;2023-02-27T13:34:15;102866.97;;;5.44;100.00
18900;BME280;9582;52.018;6.306;2023-02-27T13:36:48;102867.78;;;5.38;100.00